ENBN/BNN METAR and TAF weather

Enter ICAO airport designator
Station Type Date Time Source
ENBN METAR 2019/10/21 01:50 UTC NOAA

ENBN 210150Z AUTO 18010KT 150V210 9999NDV OVC054/// 04/M01 Q1015


Station Type Date Time Source
ENBN Decoded METAR 2019/10/21 01:50 UTC NOAA

Bronnoysund / Bronnoy, Norway (ENBN) 65-28N 012-13E 9M
Oct 20, 2019 - 09:50 PM EDT / 2019.10.21 0150 UTC
Wind: from the S (180 degrees) at 12 MPH (10 KT) (direction variable):0
Sky conditions: overcast
Temperature: 39 F (4 C)
Dew Point: 30 F (-1 C)
Relative Humidity: 69%
Pressure (altimeter): 29.97 in. Hg (1015 hPa)
ob: ENBN 210150Z AUTO 18010KT 150V210 9999NDV OVC054/// 04/M01 Q1015
cycle: 2

Station Type Date Time Source
ENBN TAF 2011/03/27 18:12 UTC NOAA

TAF TAF ENBN 261700Z 2618/2718 CNL

Example: see airport list